sensor_id;sensor_type;location;lat;lon;timestamp;temperature;humidity
324;DHT22;149;51.094;17.002;2023-07-20T00:00:07;17.20;88.60
324;DHT22;149;51.094;17.002;2023-07-20T00:02:34;17.10;89.60
324;DHT22;149;51.094;17.002;2023-07-20T00:05:01;17.00;89.70
324;DHT22;149;51.094;17.002;2023-07-20T00:07:29;17.10;90.20
324;DHT22;149;51.094;17.002;2023-07-20T00:09:56;17.10;90.00
324;DHT22;149;51.094;17.002;2023-07-20T00:12:24;17.10;90.20
324;DHT22;149;51.094;17.002;2023-07-20T00:14:51;17.00;90.40
324;DHT22;149;51.094;17.002;2023-07-20T00:17:20;17.00;91.00
324;DHT22;149;51.094;17.002;2023-07-20T00:19:48;16.90;91.00
324;DHT22;149;51.094;17.002;2023-07-20T00:22:14;16.90;91.50
324;DHT22;149;51.094;17.002;2023-07-20T00:24:41;16.80;91.90
324;DHT22;149;51.094;17.002;2023-07-20T00:27:08;16.80;92.20
324;DHT22;149;51.094;17.002;2023-07-20T00:29:36;16.80;92.10
324;DHT22;149;51.094;17.002;2023-07-20T00:32:03;16.70;92.10
324;DHT22;149;51.094;17.002;2023-07-20T00:34:32;16.80;92.20
324;DHT22;149;51.094;17.002;2023-07-20T00:37:00;16.70;92.60
324;DHT22;149;51.094;17.002;2023-07-20T00:39:27;16.50;92.70
324;DHT22;149;51.094;17.002;2023-07-20T00:41:54;16.60;93.30
324;DHT22;149;51.094;17.002;2023-07-20T00:44:21;16.60;92.80
324;DHT22;149;51.094;17.002;2023-07-20T00:46:48;16.30;93.00
324;DHT22;149;51.094;17.002;2023-07-20T00:49:16;16.50;92.80
324;DHT22;149;51.094;17.002;2023-07-20T00:51:43;16.50;93.00
324;DHT22;149;51.094;17.002;2023-07-20T00:54:11;16.50;93.00
324;DHT22;149;51.094;17.002;2023-07-20T00:56:39;16.50;92.90
324;DHT22;149;51.094;17.002;2023-07-20T00:59:06;16.50;92.90
324;DHT22;149;51.094;17.002;2023-07-20T01:01:33;16.50;93.50
324;DHT22;149;51.094;17.002;2023-07-20T01:04:01;16.50;92.90
324;DHT22;149;51.094;17.002;2023-07-20T01:06:41;16.50;93.00
324;DHT22;149;51.094;17.002;2023-07-20T01:09:26;16.50;93.00
324;DHT22;149;51.094;17.002;2023-07-20T01:12:12;16.50;92.80
324;DHT22;149;51.094;17.002;2023-07-20T01:14:40;16.50;93.20
324;DHT22;149;51.094;17.002;2023-07-20T01:17:07;16.50;93.20
324;DHT22;149;51.094;17.002;2023-07-20T01:19:34;16.50;92.90
324;DHT22;149;51.094;17.002;2023-07-20T01:22:14;16.50;93.10
324;DHT22;149;51.094;17.002;2023-07-20T01:33:14;16.50;93.30
324;DHT22;149;51.094;17.002;2023-07-20T01:35:43;16.50;92.80
324;DHT22;149;51.094;17.002;2023-07-20T01:38:12;16.50;92.30
324;DHT22;149;51.094;17.002;2023-07-20T01:40:41;16.40;92.80
324;DHT22;149;51.094;17.002;2023-07-20T01:43:08;16.40;93.30
324;DHT22;149;51.094;17.002;2023-07-20T01:45:35;16.30;93.30
324;DHT22;149;51.094;17.002;2023-07-20T01:48:02;16.10;93.30
324;DHT22;149;51.094;17.002;2023-07-20T01:50:30;16.10;93.10
324;DHT22;149;51.094;17.002;2023-07-20T01:52:57;16.00;93.60
324;DHT22;149;51.094;17.002;2023-07-20T01:55:24;15.90;93.50
324;DHT22;149;51.094;17.002;2023-07-20T01:57:51;15.90;93.70
324;DHT22;149;51.094;17.002;2023-07-20T02:00:18;15.70;93.50
324;DHT22;149;51.094;17.002;2023-07-20T02:02:50;15.70;93.70
324;DHT22;149;51.094;17.002;2023-07-20T02:05:18;15.60;93.80
324;DHT22;149;51.094;17.002;2023-07-20T02:07:44;15.60;94.00
324;DHT22;149;51.094;17.002;2023-07-20T02:10:12;15.50;94.30
324;DHT22;149;51.094;17.002;2023-07-20T02:12:39;15.50;94.50
324;DHT22;149;51.094;17.002;2023-07-20T02:15:06;15.40;94.50
324;DHT22;149;51.094;17.002;2023-07-20T02:17:33;15.50;94.50
324;DHT22;149;51.094;17.002;2023-07-20T02:20:00;15.40;94.40
324;DHT22;149;51.094;17.002;2023-07-20T02:22:28;15.40;94.50
324;DHT22;149;51.094;17.002;2023-07-20T02:24:54;15.40;94.50
324;DHT22;149;51.094;17.002;2023-07-20T02:27:22;15.40;94.60
324;DHT22;149;51.094;17.002;2023-07-20T02:29:49;15.40;94.60
324;DHT22;149;51.094;17.002;2023-07-20T02:32:17;15.40;95.00
324;DHT22;149;51.094;17.002;2023-07-20T02:34:44;15.30;95.20
324;DHT22;149;51.094;17.002;2023-07-20T02:37:12;15.40;95.00
324;DHT22;149;51.094;17.002;2023-07-20T02:39:40;15.30;95.00
324;DHT22;149;51.094;17.002;2023-07-20T02:42:07;15.30;95.20
324;DHT22;149;51.094;17.002;2023-07-20T02:44:36;15.30;95.20
324;DHT22;149;51.094;17.002;2023-07-20T02:47:03;15.30;95.40
324;DHT22;149;51.094;17.002;2023-07-20T02:49:30;15.30;95.20
324;DHT22;149;51.094;17.002;2023-07-20T02:51:58;15.20;95.30
324;DHT22;149;51.094;17.002;2023-07-20T02:54:25;15.30;94.90
324;DHT22;149;51.094;17.002;2023-07-20T02:56:51;15.30;94.80
324;DHT22;149;51.094;17.002;2023-07-20T02:59:21;15.20;95.00
324;DHT22;149;51.094;17.002;2023-07-20T03:01:48;15.20;95.00
324;DHT22;149;51.094;17.002;2023-07-20T03:04:15;15.20;95.10
324;DHT22;149;51.094;17.002;2023-07-20T03:06:43;15.20;95.20
324;DHT22;149;51.094;17.002;2023-07-20T03:09:10;15.20;95.10
324;DHT22;149;51.094;17.002;2023-07-20T03:11:37;15.20;95.10
324;DHT22;149;51.094;17.002;2023-07-20T03:14:04;15.10;95.00
324;DHT22;149;51.094;17.002;2023-07-20T03:16:31;15.20;95.00
324;DHT22;149;51.094;17.002;2023-07-20T03:19:00;15.10;95.20
324;DHT22;149;51.094;17.002;2023-07-20T03:21:27;15.10;95.20
324;DHT22;149;51.094;17.002;2023-07-20T03:23:54;15.10;95.20
324;DHT22;149;51.094;17.002;2023-07-20T03:26:22;15.10;95.20
324;DHT22;149;51.094;17.002;2023-07-20T03:28:49;15.30;95.10
324;DHT22;149;51.094;17.002;2023-07-20T03:31:16;15.10;94.90
324;DHT22;149;51.094;17.002;2023-07-20T03:33:43;15.20;95.00
324;DHT22;149;51.094;17.002;2023-07-20T03:36:10;15.20;94.90
324;DHT22;149;51.094;17.002;2023-07-20T03:38:37;15.30;94.60
324;DHT22;149;51.094;17.002;2023-07-20T03:41:04;15.30;94.30
324;DHT22;149;51.094;17.002;2023-07-20T03:43:31;15.30;94.30
324;DHT22;149;51.094;17.002;2023-07-20T03:45:58;15.30;94.40
324;DHT22;149;51.094;17.002;2023-07-20T03:48:25;15.30;94.30
324;DHT22;149;51.094;17.002;2023-07-20T03:50:53;15.30;94.30
324;DHT22;149;51.094;17.002;2023-07-20T03:53:20;15.40;94.20
324;DHT22;149;51.094;17.002;2023-07-20T03:55:49;15.40;94.00
324;DHT22;149;51.094;17.002;2023-07-20T03:58:17;15.40;94.00
324;DHT22;149;51.094;17.002;2023-07-20T04:00:46;15.50;93.50
324;DHT22;149;51.094;17.002;2023-07-20T04:03:13;15.70;93.70
324;DHT22;149;51.094;17.002;2023-07-20T04:05:42;15.90;93.30
324;DHT22;149;51.094;17.002;2023-07-20T04:08:09;16.10;92.80
324;DHT22;149;51.094;17.002;2023-07-20T04:10:38;16.30;92.70
324;DHT22;149;51.094;17.002;2023-07-20T04:13:05;16.70;92.20
324;DHT22;149;51.094;17.002;2023-07-20T04:15:32;16.70;91.70
324;DHT22;149;51.094;17.002;2023-07-20T04:17:59;16.90;91.40
324;DHT22;149;51.094;17.002;2023-07-20T04:20:27;17.00;91.40
324;DHT22;149;51.094;17.002;2023-07-20T04:22:55;17.10;90.80
324;DHT22;149;51.094;17.002;2023-07-20T04:25:22;17.20;90.80
324;DHT22;149;51.094;17.002;2023-07-20T04:27:48;17.20;91.10
324;DHT22;149;51.094;17.002;2023-07-20T04:30:17;17.20;90.80
324;DHT22;149;51.094;17.002;2023-07-20T04:32:46;17.10;91.00
324;DHT22;149;51.094;17.002;2023-07-20T04:35:49;17.30;91.10
324;DHT22;149;51.094;17.002;2023-07-20T04:38:17;17.50;90.40
324;DHT22;149;51.094;17.002;2023-07-20T04:40:45;17.40;90.70
324;DHT22;149;51.094;17.002;2023-07-20T04:43:14;17.50;90.40
324;DHT22;149;51.094;17.002;2023-07-20T04:45:41;17.70;90.50
324;DHT22;149;51.094;17.002;2023-07-20T04:48:12;17.60;90.30
324;DHT22;149;51.094;17.002;2023-07-20T04:50:41;17.70;90.40
324;DHT22;149;51.094;17.002;2023-07-20T04:53:09;17.70;90.10
324;DHT22;149;51.094;17.002;2023-07-20T04:55:38;17.80;90.40
324;DHT22;149;51.094;17.002;2023-07-20T04:58:06;17.80;90.00
324;DHT22;149;51.094;17.002;2023-07-20T05:00:34;17.80;90.50
324;DHT22;149;51.094;17.002;2023-07-20T05:03:01;17.90;89.60
324;DHT22;149;51.094;17.002;2023-07-20T05:05:28;17.90;89.90
324;DHT22;149;51.094;17.002;2023-07-20T05:07:55;18.00;90.40
324;DHT22;149;51.094;17.002;2023-07-20T05:10:23;18.10;88.30
324;DHT22;149;51.094;17.002;2023-07-20T05:12:50;18.20;88.10
324;DHT22;149;51.094;17.002;2023-07-20T05:15:17;18.30;88.40
324;DHT22;149;51.094;17.002;2023-07-20T05:17:44;18.20;88.10
324;DHT22;149;51.094;17.002;2023-07-20T05:20:12;18.10;88.80
324;DHT22;149;51.094;17.002;2023-07-20T05:22:39;18.20;89.10
324;DHT22;149;51.094;17.002;2023-07-20T05:25:08;18.10;88.50
324;DHT22;149;51.094;17.002;2023-07-20T05:27:37;18.00;88.90
324;DHT22;149;51.094;17.002;2023-07-20T05:30:05;18.00;89.00
324;DHT22;149;51.094;17.002;2023-07-20T05:32:33;18.10;88.40
324;DHT22;149;51.094;17.002;2023-07-20T05:35:01;18.30;88.90
324;DHT22;149;51.094;17.002;2023-07-20T05:37:28;18.00;89.00
324;DHT22;149;51.094;17.002;2023-07-20T05:39:56;17.90;88.10
324;DHT22;149;51.094;17.002;2023-07-20T05:42:24;17.80;89.00
324;DHT22;149;51.094;17.002;2023-07-20T05:44:51;17.90;89.00
324;DHT22;149;51.094;17.002;2023-07-20T05:47:19;18.00;88.90
324;DHT22;149;51.094;17.002;2023-07-20T05:49:47;18.00;88.80
324;DHT22;149;51.094;17.002;2023-07-20T05:52:14;18.10;88.70
324;DHT22;149;51.094;17.002;2023-07-20T05:54:41;18.10;88.20
324;DHT22;149;51.094;17.002;2023-07-20T05:57:08;18.10;88.40
324;DHT22;149;51.094;17.002;2023-07-20T05:59:35;17.90;89.20
324;DHT22;149;51.094;17.002;2023-07-20T06:02:03;18.10;89.10
324;DHT22;149;51.094;17.002;2023-07-20T06:04:30;18.30;87.80
324;DHT22;149;51.094;17.002;2023-07-20T06:06:58;18.40;87.20
324;DHT22;149;51.094;17.002;2023-07-20T06:09:25;18.30;87.80
324;DHT22;149;51.094;17.002;2023-07-20T06:11:53;18.40;87.80
324;DHT22;149;51.094;17.002;2023-07-20T06:14:21;18.50;86.90
324;DHT22;149;51.094;17.002;2023-07-20T06:16:47;18.80;86.40
324;DHT22;149;51.094;17.002;2023-07-20T06:19:15;19.50;83.40
324;DHT22;149;51.094;17.002;2023-07-20T06:21:43;20.00;82.40
324;DHT22;149;51.094;17.002;2023-07-20T06:24:10;20.30;80.00
324;DHT22;149;51.094;17.002;2023-07-20T06:26:37;20.20;79.80
324;DHT22;149;51.094;17.002;2023-07-20T06:29:07;20.10;80.00
324;DHT22;149;51.094;17.002;2023-07-20T06:31:36;20.10;79.90
324;DHT22;149;51.094;17.002;2023-07-20T06:34:03;19.80;80.90
324;DHT22;149;51.094;17.002;2023-07-20T06:36:31;19.90;80.00
324;DHT22;149;51.094;17.002;2023-07-20T06:38:57;19.70;80.20
324;DHT22;149;51.094;17.002;2023-07-20T06:41:27;20.10;79.20
324;DHT22;149;51.094;17.002;2023-07-20T06:43:57;20.60;78.00
324;DHT22;149;51.094;17.002;2023-07-20T06:46:26;20.80;77.40
324;DHT22;149;51.094;17.002;2023-07-20T06:48:54;20.80;76.60
324;DHT22;149;51.094;17.002;2023-07-20T06:51:24;20.80;76.30
324;DHT22;149;51.094;17.002;2023-07-20T06:53:52;21.10;75.00
324;DHT22;149;51.094;17.002;2023-07-20T06:56:19;21.30;74.90
324;DHT22;149;51.094;17.002;2023-07-20T06:58:50;21.60;73.50
324;DHT22;149;51.094;17.002;2023-07-20T07:01:17;22.30;70.70
324;DHT22;149;51.094;17.002;2023-07-20T07:03:45;22.80;69.30
324;DHT22;149;51.094;17.002;2023-07-20T07:06:12;23.30;67.00
324;DHT22;149;51.094;17.002;2023-07-20T07:08:39;23.10;65.50
324;DHT22;149;51.094;17.002;2023-07-20T07:11:06;22.90;65.70
324;DHT22;149;51.094;17.002;2023-07-20T07:13:33;23.00;66.40
324;DHT22;149;51.094;17.002;2023-07-20T07:16:01;23.00;64.20
324;DHT22;149;51.094;17.002;2023-07-20T07:18:28;23.20;65.90
324;DHT22;149;51.094;17.002;2023-07-20T07:20:56;23.60;64.00
324;DHT22;149;51.094;17.002;2023-07-20T07:23:28;23.70;63.40
324;DHT22;149;51.094;17.002;2023-07-20T07:25:55;23.60;62.40
324;DHT22;149;51.094;17.002;2023-07-20T07:28:22;24.30;60.40
324;DHT22;149;51.094;17.002;2023-07-20T07:30:49;24.90;57.50
324;DHT22;149;51.094;17.002;2023-07-20T07:33:16;25.30;57.40
324;DHT22;149;51.094;17.002;2023-07-20T07:35:44;25.60;56.30
324;DHT22;149;51.094;17.002;2023-07-20T07:38:12;25.70;55.50
324;DHT22;149;51.094;17.002;2023-07-20T07:40:45;24.70;57.70
324;DHT22;149;51.094;17.002;2023-07-20T07:43:12;24.00;59.40
324;DHT22;149;51.094;17.002;2023-07-20T07:45:40;23.30;62.40
324;DHT22;149;51.094;17.002;2023-07-20T07:48:07;23.60;61.70
324;DHT22;149;51.094;17.002;2023-07-20T07:50:35;23.50;62.00
324;DHT22;149;51.094;17.002;2023-07-20T07:53:02;22.60;64.70
324;DHT22;149;51.094;17.002;2023-07-20T07:55:29;21.90;66.50
324;DHT22;149;51.094;17.002;2023-07-20T07:57:56;22.20;67.50
324;DHT22;149;51.094;17.002;2023-07-20T08:00:23;24.00;63.10
324;DHT22;149;51.094;17.002;2023-07-20T08:02:51;25.30;57.90
324;DHT22;149;51.094;17.002;2023-07-20T08:05:19;25.70;55.70
324;DHT22;149;51.094;17.002;2023-07-20T08:07:45;24.80;57.10
324;DHT22;149;51.094;17.002;2023-07-20T08:10:13;23.90;59.60
324;DHT22;149;51.094;17.002;2023-07-20T08:12:42;23.70;61.30
324;DHT22;149;51.094;17.002;2023-07-20T08:15:13;24.90;59.10
324;DHT22;149;51.094;17.002;2023-07-20T08:17:42;26.70;53.00
324;DHT22;149;51.094;17.002;2023-07-20T08:20:13;27.00;51.20
324;DHT22;149;51.094;17.002;2023-07-20T08:22:40;28.00;48.70
324;DHT22;149;51.094;17.002;2023-07-20T08:25:08;27.50;49.70
324;DHT22;149;51.094;17.002;2023-07-20T08:27:37;26.30;51.80
324;DHT22;149;51.094;17.002;2023-07-20T08:30:04;26.00;53.90
324;DHT22;149;51.094;17.002;2023-07-20T08:32:32;25.50;55.10
324;DHT22;149;51.094;17.002;2023-07-20T08:34:59;25.40;54.60
324;DHT22;149;51.094;17.002;2023-07-20T08:37:27;24.60;55.70
324;DHT22;149;51.094;17.002;2023-07-20T08:39:56;24.00;57.60
324;DHT22;149;51.094;17.002;2023-07-20T08:42:24;23.20;58.60
324;DHT22;149;51.094;17.002;2023-07-20T08:44:53;22.60;59.50
324;DHT22;149;51.094;17.002;2023-07-20T08:47:21;22.60;60.50
324;DHT22;149;51.094;17.002;2023-07-20T08:49:49;23.20;59.50
324;DHT22;149;51.094;17.002;2023-07-20T08:52:16;23.50;60.10
324;DHT22;149;51.094;17.002;2023-07-20T08:54:44;24.50;57.10
324;DHT22;149;51.094;17.002;2023-07-20T08:57:13;25.90;53.70
324;DHT22;149;51.094;17.002;2023-07-20T08:59:44;27.00;48.90
324;DHT22;149;51.094;17.002;2023-07-20T09:02:16;27.70;47.50
324;DHT22;149;51.094;17.002;2023-07-20T09:04:45;28.30;45.20
324;DHT22;149;51.094;17.002;2023-07-20T09:07:13;28.60;45.00
324;DHT22;149;51.094;17.002;2023-07-20T09:09:41;27.90;45.20
324;DHT22;149;51.094;17.002;2023-07-20T09:12:15;26.90;48.40
324;DHT22;149;51.094;17.002;2023-07-20T09:14:43;25.90;51.50
324;DHT22;149;51.094;17.002;2023-07-20T09:17:14;24.20;60.20
324;DHT22;149;51.094;17.002;2023-07-20T09:19:48;23.30;67.90
324;DHT22;149;51.094;17.002;2023-07-20T09:22:15;22.50;68.40
324;DHT22;149;51.094;17.002;2023-07-20T09:24:44;22.80;68.80
324;DHT22;149;51.094;17.002;2023-07-20T09:27:12;24.00;66.40
324;DHT22;149;51.094;17.002;2023-07-20T09:29:51;25.10;56.70
324;DHT22;149;51.094;17.002;2023-07-20T09:32:20;25.50;54.10
324;DHT22;149;51.094;17.002;2023-07-20T09:34:50;26.00;52.70
324;DHT22;149;51.094;17.002;2023-07-20T09:37:22;26.50;49.50
324;DHT22;149;51.094;17.002;2023-07-20T09:39:52;27.00;49.90
324;DHT22;149;51.094;17.002;2023-07-20T09:42:23;27.00;49.40
324;DHT22;149;51.094;17.002;2023-07-20T09:44:55;25.90;49.00
324;DHT22;149;51.094;17.002;2023-07-20T09:47:24;25.50;51.50
324;DHT22;149;51.094;17.002;2023-07-20T09:49:58;25.00;49.80
324;DHT22;149;51.094;17.002;2023-07-20T09:52:30;25.20;50.60
324;DHT22;149;51.094;17.002;2023-07-20T09:55:02;25.10;51.60
324;DHT22;149;51.094;17.002;2023-07-20T09:57:30;25.30;50.20
324;DHT22;149;51.094;17.002;2023-07-20T09:59:57;25.30;49.30
324;DHT22;149;51.094;17.002;2023-07-20T10:02:34;25.80;49.50
324;DHT22;149;51.094;17.002;2023-07-20T10:05:08;25.90;47.90
324;DHT22;149;51.094;17.002;2023-07-20T10:07:43;25.90;48.60
324;DHT22;149;51.094;17.002;2023-07-20T10:10:10;25.70;47.70
324;DHT22;149;51.094;17.002;2023-07-20T10:12:39;25.20;48.60
324;DHT22;149;51.094;17.002;2023-07-20T10:15:27;25.10;48.30
324;DHT22;149;51.094;17.002;2023-07-20T10:18:03;25.00;48.80
324;DHT22;149;51.094;17.002;2023-07-20T10:20:36;25.10;49.60
324;DHT22;149;51.094;17.002;2023-07-20T10:23:26;25.10;48.80
324;DHT22;149;51.094;17.002;2023-07-20T10:25:55;24.90;47.00
324;DHT22;149;51.094;17.002;2023-07-20T10:28:24;25.00;47.20
324;DHT22;149;51.094;17.002;2023-07-20T10:30:51;25.20;46.90
324;DHT22;149;51.094;17.002;2023-07-20T10:33:19;25.20;46.20
324;DHT22;149;51.094;17.002;2023-07-20T10:35:54;25.10;48.40
324;DHT22;149;51.094;17.002;2023-07-20T10:43:47;25.10;47.50
324;DHT22;149;51.094;17.002;2023-07-20T10:46:15;25.30;47.00
324;DHT22;149;51.094;17.002;2023-07-20T10:49:04;25.60;47.30
324;DHT22;149;51.094;17.002;2023-07-20T10:51:55;25.30;47.10
324;DHT22;149;51.094;17.002;2023-07-20T10:56:50;24.60;49.90
324;DHT22;149;51.094;17.002;2023-07-20T10:59:36;24.50;49.10
324;DHT22;149;51.094;17.002;2023-07-20T11:02:06;24.80;48.80
324;DHT22;149;51.094;17.002;2023-07-20T11:04:47;24.90;48.30
324;DHT22;149;51.094;17.002;2023-07-20T11:07:35;25.00;48.10
324;DHT22;149;51.094;17.002;2023-07-20T11:10:15;25.10;46.80
324;DHT22;149;51.094;17.002;2023-07-20T11:18:28;26.00;46.30
324;DHT22;149;51.094;17.002;2023-07-20T11:20:55;26.40;44.30
324;DHT22;149;51.094;17.002;2023-07-20T11:23:22;26.70;44.60
324;DHT22;149;51.094;17.002;2023-07-20T11:25:50;27.00;43.50
324;DHT22;149;51.094;17.002;2023-07-20T11:28:17;26.90;43.70
324;DHT22;149;51.094;17.002;2023-07-20T11:30:44;26.40;45.40
324;DHT22;149;51.094;17.002;2023-07-20T11:33:11;25.00;49.20
324;DHT22;149;51.094;17.002;2023-07-20T11:35:45;24.10;53.40
324;DHT22;149;51.094;17.002;2023-07-20T11:38:14;22.90;70.90
324;DHT22;149;51.094;17.002;2023-07-20T11:40:43;21.10;72.20
324;DHT22;149;51.094;17.002;2023-07-20T11:43:12;19.60;82.90
324;DHT22;149;51.094;17.002;2023-07-20T11:45:42;18.90;86.00
324;DHT22;149;51.094;17.002;2023-07-20T11:48:17;18.80;90.10
324;DHT22;149;51.094;17.002;2023-07-20T11:50:45;18.80;90.00
324;DHT22;149;51.094;17.002;2023-07-20T11:53:11;18.50;89.00
324;DHT22;149;51.094;17.002;2023-07-20T11:55:40;18.40;90.20
324;DHT22;149;51.094;17.002;2023-07-20T11:58:09;18.40;90.70
324;DHT22;149;51.094;17.002;2023-07-20T12:00:38;18.50;89.40
324;DHT22;149;51.094;17.002;2023-07-20T12:03:07;18.60;90.20
324;DHT22;149;51.094;17.002;2023-07-20T12:05:34;18.80;90.40
324;DHT22;149;51.094;17.002;2023-07-20T12:08:21;19.10;88.00
324;DHT22;149;51.094;17.002;2023-07-20T12:10:48;19.30;87.30
324;DHT22;149;51.094;17.002;2023-07-20T12:13:15;19.60;87.10
324;DHT22;149;51.094;17.002;2023-07-20T12:15:43;19.50;85.80
324;DHT22;149;51.094;17.002;2023-07-20T12:18:10;19.70;82.60
324;DHT22;149;51.094;17.002;2023-07-20T12:20:38;19.90;81.10
324;DHT22;149;51.094;17.002;2023-07-20T12:23:09;20.30;77.90
324;DHT22;149;51.094;17.002;2023-07-20T12:25:45;20.90;77.20
324;DHT22;149;51.094;17.002;2023-07-20T12:28:14;21.50;78.60
324;DHT22;149;51.094;17.002;2023-07-20T12:30:43;21.80;69.80
324;DHT22;149;51.094;17.002;2023-07-20T12:33:11;21.70;70.60
324;DHT22;149;51.094;17.002;2023-07-20T12:35:43;21.50;67.80
324;DHT22;149;51.094;17.002;2023-07-20T12:38:10;21.60;68.00
324;DHT22;149;51.094;17.002;2023-07-20T12:40:37;21.70;64.90
324;DHT22;149;51.094;17.002;2023-07-20T12:43:04;21.70;66.30
324;DHT22;149;51.094;17.002;2023-07-20T12:45:33;21.90;66.80
324;DHT22;149;51.094;17.002;2023-07-20T12:48:00;21.90;66.00
324;DHT22;149;51.094;17.002;2023-07-20T12:50:27;22.20;65.60
324;DHT22;149;51.094;17.002;2023-07-20T12:52:54;22.30;64.80
324;DHT22;149;51.094;17.002;2023-07-20T12:55:21;22.30;62.50
324;DHT22;149;51.094;17.002;2023-07-20T12:57:48;22.30;63.60
324;DHT22;149;51.094;17.002;2023-07-20T13:00:16;22.70;62.50
324;DHT22;149;51.094;17.002;2023-07-20T13:02:43;22.80;63.80
324;DHT22;149;51.094;17.002;2023-07-20T13:05:10;22.60;58.00
324;DHT22;149;51.094;17.002;2023-07-20T13:07:38;22.60;58.20
324;DHT22;149;51.094;17.002;2023-07-20T13:10:09;23.00;56.70
324;DHT22;149;51.094;17.002;2023-07-20T13:12:37;23.20;57.30
324;DHT22;149;51.094;17.002;2023-07-20T13:15:06;23.30;55.30
324;DHT22;149;51.094;17.002;2023-07-20T13:17:38;23.20;56.40
324;DHT22;149;51.094;17.002;2023-07-20T13:20:08;23.30;57.50
324;DHT22;149;51.094;17.002;2023-07-20T13:22:38;23.20;56.80
324;DHT22;149;51.094;17.002;2023-07-20T13:25:05;23.40;57.30
324;DHT22;149;51.094;17.002;2023-07-20T13:27:33;23.40;56.50
324;DHT22;149;51.094;17.002;2023-07-20T13:30:00;23.50;56.70
324;DHT22;149;51.094;17.002;2023-07-20T13:32:29;23.40;56.40
324;DHT22;149;51.094;17.002;2023-07-20T13:35:00;23.40;56.10
324;DHT22;149;51.094;17.002;2023-07-20T13:37:27;23.60;56.10
324;DHT22;149;51.094;17.002;2023-07-20T13:39:55;23.90;56.30
324;DHT22;149;51.094;17.002;2023-07-20T13:42:23;24.20;55.30
324;DHT22;149;51.094;17.002;2023-07-20T13:44:51;24.10;54.00
324;DHT22;149;51.094;17.002;2023-07-20T13:47:26;23.70;53.60
324;DHT22;149;51.094;17.002;2023-07-20T13:49:54;23.70;54.10
324;DHT22;149;51.094;17.002;2023-07-20T13:52:30;23.70;53.00
324;DHT22;149;51.094;17.002;2023-07-20T13:55:01;23.70;52.90
324;DHT22;149;51.094;17.002;2023-07-20T13:57:31;23.80;53.90
324;DHT22;149;51.094;17.002;2023-07-20T14:00:02;24.10;52.40
324;DHT22;149;51.094;17.002;2023-07-20T14:02:31;23.70;52.90
324;DHT22;149;51.094;17.002;2023-07-20T14:05:01;23.60;52.10
324;DHT22;149;51.094;17.002;2023-07-20T14:07:31;23.60;52.10
324;DHT22;149;51.094;17.002;2023-07-20T14:09:59;23.60;53.00
324;DHT22;149;51.094;17.002;2023-07-20T14:12:28;23.50;53.10
324;DHT22;149;51.094;17.002;2023-07-20T14:14:56;23.80;51.50
324;DHT22;149;51.094;17.002;2023-07-20T14:17:23;23.80;50.50
324;DHT22;149;51.094;17.002;2023-07-20T14:19:52;23.50;51.30
324;DHT22;149;51.094;17.002;2023-07-20T14:22:20;23.50;52.30
324;DHT22;149;51.094;17.002;2023-07-20T14:24:47;23.60;52.10
324;DHT22;149;51.094;17.002;2023-07-20T14:27:14;23.60;51.20
324;DHT22;149;51.094;17.002;2023-07-20T14:29:41;23.60;50.40
324;DHT22;149;51.094;17.002;2023-07-20T14:32:08;23.70;50.90
324;DHT22;149;51.094;17.002;2023-07-20T14:34:34;23.60;50.30
324;DHT22;149;51.094;17.002;2023-07-20T14:37:05;23.60;50.90
324;DHT22;149;51.094;17.002;2023-07-20T14:39:32;23.90;50.50
324;DHT22;149;51.094;17.002;2023-07-20T14:41:59;23.70;50.20
324;DHT22;149;51.094;17.002;2023-07-20T14:44:26;23.80;50.00
324;DHT22;149;51.094;17.002;2023-07-20T14:46:54;23.90;49.60
324;DHT22;149;51.094;17.002;2023-07-20T14:49:38;23.70;49.30
324;DHT22;149;51.094;17.002;2023-07-20T14:52:06;23.80;50.80
324;DHT22;149;51.094;17.002;2023-07-20T14:54:41;23.90;50.80
324;DHT22;149;51.094;17.002;2023-07-20T14:57:08;24.10;50.10
324;DHT22;149;51.094;17.002;2023-07-20T14:59:41;24.00;49.70
324;DHT22;149;51.094;17.002;2023-07-20T15:02:09;24.10;49.50
324;DHT22;149;51.094;17.002;2023-07-20T15:04:36;24.40;48.80
324;DHT22;149;51.094;17.002;2023-07-20T15:07:03;24.60;48.70
324;DHT22;149;51.094;17.002;2023-07-20T15:09:30;24.60;49.10
324;DHT22;149;51.094;17.002;2023-07-20T15:11:58;24.30;50.80
324;DHT22;149;51.094;17.002;2023-07-20T15:14:25;24.30;51.20
324;DHT22;149;51.094;17.002;2023-07-20T15:16:52;23.80;52.50
324;DHT22;149;51.094;17.002;2023-07-20T15:19:19;23.50;53.90
324;DHT22;149;51.094;17.002;2023-07-20T15:21:49;23.40;53.80
324;DHT22;149;51.094;17.002;2023-07-20T15:24:15;23.40;54.30
324;DHT22;149;51.094;17.002;2023-07-20T15:26:43;23.20;54.50
324;DHT22;149;51.094;17.002;2023-07-20T15:29:09;23.40;55.20
324;DHT22;149;51.094;17.002;2023-07-20T15:31:57;23.60;53.30
324;DHT22;149;51.094;17.002;2023-07-20T15:34:26;23.60;51.10
324;DHT22;149;51.094;17.002;2023-07-20T15:36:54;23.70;50.10
324;DHT22;149;51.094;17.002;2023-07-20T15:39:21;23.60;50.00
324;DHT22;149;51.094;17.002;2023-07-20T15:41:48;23.50;50.30
324;DHT22;149;51.094;17.002;2023-07-20T15:44:15;23.50;51.20
324;DHT22;149;51.094;17.002;2023-07-20T15:49:09;23.40;51.00
324;DHT22;149;51.094;17.002;2023-07-20T15:51:37;23.00;51.10
324;DHT22;149;51.094;17.002;2023-07-20T15:54:05;23.20;50.80
324;DHT22;149;51.094;17.002;2023-07-20T15:56:36;23.20;51.50
324;DHT22;149;51.094;17.002;2023-07-20T15:59:03;23.20;51.40
324;DHT22;149;51.094;17.002;2023-07-20T16:01:31;23.20;52.00
324;DHT22;149;51.094;17.002;2023-07-20T16:03:58;23.10;52.60
324;DHT22;149;51.094;17.002;2023-07-20T16:06:26;23.10;52.40
324;DHT22;149;51.094;17.002;2023-07-20T16:08:53;23.30;53.00
324;DHT22;149;51.094;17.002;2023-07-20T16:11:22;23.50;52.80
324;DHT22;149;51.094;17.002;2023-07-20T16:13:53;23.50;51.80
324;DHT22;149;51.094;17.002;2023-07-20T16:16:20;23.50;50.00
324;DHT22;149;51.094;17.002;2023-07-20T16:18:50;23.60;48.90
324;DHT22;149;51.094;17.002;2023-07-20T16:21:18;23.70;48.50
324;DHT22;149;51.094;17.002;2023-07-20T16:23:45;23.90;49.60
324;DHT22;149;51.094;17.002;2023-07-20T16:26:12;23.70;49.50
324;DHT22;149;51.094;17.002;2023-07-20T16:28:39;23.50;48.80
324;DHT22;149;51.094;17.002;2023-07-20T16:31:12;23.30;49.90
324;DHT22;149;51.094;17.002;2023-07-20T16:33:41;23.10;49.90
324;DHT22;149;51.094;17.002;2023-07-20T16:36:14;22.90;50.20
324;DHT22;149;51.094;17.002;2023-07-20T16:38:42;22.90;50.20
324;DHT22;149;51.094;17.002;2023-07-20T16:41:10;22.90;50.60
324;DHT22;149;51.094;17.002;2023-07-20T16:43:38;22.90;50.60
324;DHT22;149;51.094;17.002;2023-07-20T16:46:09;23.00;50.70
324;DHT22;149;51.094;17.002;2023-07-20T16:48:39;23.10;50.10
324;DHT22;149;51.094;17.002;2023-07-20T16:51:11;23.20;50.90